Latest Weather Observations for Katanning RS

IDW60801

Issued at 7:32 am WST Friday 19 December 2014 (issued every 30 minutes, with the page automatically refreshed every 10 minutes)

About weather observations | Map of weather stations | Latest weather observations for WA | Other Formats
Station Details ID: 010916 Name: KATANNING Lat: -33.69 Lon: 117.61 Height: 320.0 m
Data from the previous 72 hours. | See also: Recent months at Katanning RS
Date/Time
WST
Temp
°C
App
Temp
°C
Dew
Point
Rel
Hum
%
Delta-T
°C
Wind Press
QNH
hPa
Press
MSL
hPa
Rain
since 9 am
mm
Dir
 
Spd
km/h
Gust
km/h
Spd
kts
Gust
kts
19/07:30am 20.1 17.2 9.7 51 5.6 E 15 20 8 11 1018.5 1017.4 0.0
19/07:00am 17.3 14.7 9.2 59 4.3 E 13 19 7 10 1018.7 1017.6 0.0
19/06:30am 15.4 13.2 9.5 68 3.1 E 11 15 6 8 1018.6 1017.5 0.0
19/06:00am 13.6 11.7 9.1 74 2.3 ESE 9 15 5 8 1018.2 1017.1 0.0
19/05:30am 12.4 10.5 9.1 80 1.7 ESE 9 13 5 7 1018.3 1017.2 0.0
19/05:00am 11.0 9.3 8.4 84 1.3 SE 7 11 4 6 1018.1 1017.0 0.0
19/04:30am 11.4 9.8 8.8 84 1.3 ESE 7 9 4 5 1017.8 1016.7 0.0
19/04:00am 11.5 10.1 8.7 83 1.4 E 6 7 3 4 1017.7 1016.6 0.0
19/03:30am 11.9 10.5 8.7 81 1.6 E 6 9 3 5 1017.5 1016.4 0.0
19/03:00am 12.3 10.4 9.1 81 1.6 ESE 9 15 5 8 1017.4 1016.3 0.0
19/02:30am 12.6 10.3 9.1 79 1.8 ESE 11 15 6 8 1017.5 1016.4 0.0
19/02:00am 12.9 10.6 9.0 77 2.0 ESE 11 17 6 9 1017.6 1016.5 0.0
19/01:30am 13.3 10.9 8.8 74 2.3 ESE 11 17 6 9 1017.6 1016.5 0.0
19/01:00am 13.6 11.5 8.2 70 2.7 ESE 9 13 5 7 1018.0 1016.9 0.0
19/12:30am 14.1 11.5 7.9 66 3.1 ESE 11 17 6 9 1018.4 1017.3 0.0
19/12:00am 14.5 12.0 8.0 65 3.3 SE 11 17 6 9 1018.5 1017.4 0.0
 
Date/Time
WST
Temp
°C
App
Temp
°C
Dew
Point
Rel
Hum
%
Delta-T
°C
Wind Press
QNH
hPa
Press
MSL
hPa
Rain
since 9 am
mm
Dir
 
Spd
km/h
Gust
km/h
Spd
kts
Gust
kts
18/11:30pm 14.8 12.3 8.1 64 3.4 SE 11 17 6 9 1018.7 1017.6 0.0
18/11:00pm 15.3 13.1 7.8 61 3.8 SE 9 15 5 8 1018.7 1017.6 0.0
18/10:30pm 16.1 13.5 7.6 57 4.3 SE 11 15 6 8 1018.7 1017.6 0.0
18/10:00pm 17.1 13.3 7.5 53 4.9 SE 17 22 9 12 1018.5 1017.4 0.0
18/09:30pm 18.8 15.2 8.2 50 5.5 ESE 17 32 9 17 1018.4 1017.3 0.0
18/09:00pm 20.0 16.1 8.7 48 6.0 ESE 19 30 10 16 1018.0 1016.9 0.0
18/08:30pm 21.4 17.8 8.3 43 7.0 ESE 17 26 9 14 1017.6 1016.5 0.0
18/08:00pm 22.7 19.1 8.4 40 7.7 ESE 17 26 9 14 1017.3 1016.2 0.0
18/07:30pm 23.8 19.5 7.8 36 8.5 ESE 20 32 11 17 1017.0 1015.9 0.0
18/07:00pm 26.7 23.1 0.4 18 12.5 ESE 9 17 5 9 1016.4 1015.2 0.0
18/06:30pm 27.8 24.1 -0.3 16 13.3 SE 9 15 5 8 1016.0 1014.8 0.0
18/06:00pm 28.3 24.1 -0.8 15 13.7 SE 11 17 6 9 1016.0 1014.8 0.0
18/05:30pm 28.5 25.1 -0.6 15 13.8 ESE 7 19 4 10 1015.9 1014.7 0.0
18/05:00pm 28.5 24.2 -1.6 14 14.0 ESE 11 19 6 10 1015.9 1014.7 0.0
18/04:30pm 28.9 25.2 -0.3 15 14.0 ESE 9 19 5 10 1016.0 1014.8 0.0
18/04:00pm 28.6 24.8 -0.5 15 13.8 ESE 9 19 5 10 1016.1 1014.9 0.0
18/03:30pm 28.5 24.0 -0.6 15 13.8 E 13 19 7 10 1016.5 1015.4 0.0
18/03:00pm 28.6 24.6 0.3 16 13.6 ESE 11 19 6 10 1016.6 1015.5 0.0
18/02:30pm 27.5 23.7 -0.5 16 13.2 ENE 9 19 5 10 1016.8 1015.7 0.0
18/02:00pm 27.7 24.1 0.5 17 13.1 SE 9 15 5 8 1017.1 1016.0 0.0
18/01:30pm 27.4 23.0 0.2 17 13.0 ENE 13 20 7 11 1017.3 1016.2 0.0
18/01:00pm 26.1 22.6 1.4 20 11.9 ESE 9 22 5 12 1017.7 1016.6 0.0
18/12:30pm 25.8 21.6 1.8 21 11.7 ENE 13 22 7 12 1017.9 1016.8 0.0
18/12:00pm 24.6 21.1 3.3 25 10.5 NE 11 24 6 13 1018.3 1017.2 0.0
18/11:30am 24.1 20.7 4.0 27 10.1 E 11 20 6 11 1018.6 1017.5 0.0
18/11:00am 23.4 20.2 5.3 31 9.2 NE 11 20 6 11 1018.7 1017.6 0.0
18/10:30am 21.9 18.5 5.8 35 8.2 E 13 20 7 11 1019.3 1018.2 0.0
18/10:00am 20.7 18.0 5.5 37 7.6 ESE 9 19 5 10 1019.5 1018.4 0.0
18/09:30am 19.8 17.0 6.9 43 6.6 NE 11 17 6 9 1019.5 1018.4 0.0
18/09:00am 18.0 14.4 6.8 48 5.7 E 15 20 8 11 1019.7 1018.6 0.0
18/08:30am 17.5 14.5 7.8 53 5.0 ENE 13 20 7 11 1019.7 1018.6 0.0
18/08:00am 16.4 13.5 8.1 58 4.3 ENE 13 22 7 12 1019.7 1018.6 0.0
18/07:30am 15.7 12.9 8.4 62 3.8 E 13 22 7 12 1019.6 1018.5 0.0
18/07:00am 14.2 11.6 7.7 65 3.3 ESE 11 17 6 9 1019.5 1018.4 0.0
18/06:30am 13.5 12.3 8.1 70 2.7 ESE 4 7 2 4 1019.2 1018.1 0.0
18/06:00am 11.3 10.8 7.8 79 1.7 CALM 0 0 0 0 1018.7 1017.6 0.0
18/05:30am 8.7 7.9 6.3 85 1.1 CALM 0 0 0 0 1018.1 1017.0 0.0
18/05:00am 8.5 6.5 6.3 86 1.0 S 6 7 3 4 1017.7 1016.6 0.0
18/04:30am 8.2 5.9 5.5 83 1.2 SSE 7 7 4 4 1017.6 1016.5 0.0
18/04:00am 8.2 5.9 5.7 84 1.1 SSE 7 7 4 4 1017.5 1016.4 0.0
18/03:30am 8.0 6.9 5.3 83 1.2 CALM 0 0 0 0 1017.3 1016.2 0.0
18/03:00am 9.0 7.4 6.3 83 1.3 ENE 4 6 2 3 1017.0 1015.9 0.0
18/02:30am 8.6 6.8 5.4 80 1.5 ENE 4 6 2 3 1017.0 1015.9 0.0
18/02:00am 9.3 7.6 5.9 79 1.6 ESE 4 6 2 3 1016.8 1015.7 0.0
18/01:30am 10.1 7.6 6.4 78 1.8 SSE 9 13 5 7 1016.7 1015.6 0.0
18/01:00am 10.0 7.8 6.3 78 1.7 S 7 11 4 6 1016.9 1015.8 0.0
18/12:30am 10.2 8.1 6.0 75 2.0 SE 6 7 3 4 1017.3 1016.2 0.0
18/12:00am 10.9 8.9 6.1 72 2.3 SE 6 9 3 5 1017.5 1016.4 0.0
 
Date/Time
WST
Temp
°C
App
Temp
°C
Dew
Point
Rel
Hum
%
Delta-T
°C
Wind Press
QNH
hPa
Press
MSL
hPa
Rain
since 9 am
mm
Dir
 
Spd
km/h
Gust
km/h
Spd
kts
Gust
kts
17/11:30pm 12.1 9.2 6.6 69 2.7 SSE 11 15 6 8 1017.3 1016.2 0.0
17/11:00pm 12.5 9.2 6.3 66 3.0 SSE 13 19 7 10 1017.4 1016.3 0.0
17/10:30pm 13.2 9.1 6.3 63 3.3 SSE 17 20 9 11 1017.0 1015.9 0.0
17/10:00pm 13.9 9.4 6.0 59 3.8 S 19 26 10 14 1016.9 1015.8 0.0
17/09:30pm 14.7 10.6 6.0 56 4.2 S 17 22 9 12 1016.6 1015.5 0.0
17/09:00pm 15.7 11.6 6.4 54 4.6 S 17 28 9 15 1016.2 1015.0 0.0
17/08:30pm 16.6 12.5 6.4 51 5.1 S 17 26 9 14 1015.9 1014.7 0.0
17/08:00pm 17.4 14.1 6.6 49 5.4 S 13 22 7 12 1015.4 1014.3 0.0
17/07:30pm 18.5 14.7 6.0 44 6.3 S 15 22 8 12 1015.0 1013.9 0.0
17/07:00pm 19.6 15.4 5.6 40 7.0 S 17 24 9 13 1014.5 1013.4 0.0
17/06:30pm 20.8 16.4 4.8 35 7.9 S 17 24 9 13 1014.1 1013.0 0.0
17/06:00pm 21.8 17.3 4.4 32 8.6 S 17 26 9 14 1013.7 1012.6 0.0
17/05:30pm 22.8 18.2 3.9 29 9.4 SSW 17 24 9 13 1013.3 1012.1 0.0
17/05:00pm 23.4 18.6 4.4 29 9.5 SSW 19 28 10 15 1013.0 1011.8 0.0
17/04:30pm 24.3 19.7 3.6 26 10.3 SSW 17 26 9 14 1012.7 1011.5 0.0
17/04:00pm 24.3 20.1 3.6 26 10.3 S 15 33 8 18 1012.5 1011.3 0.0
17/03:30pm 23.4 19.1 3.4 27 9.8 S 15 26 8 14 1012.6 1011.4 0.0
17/03:00pm 24.0 19.1 3.9 27 10.0 SSW 19 32 10 17 1012.6 1011.4 0.0
17/02:30pm 23.2 18.2 3.7 28 9.6 SSW 19 32 10 17 1012.6 1011.4 0.0
17/02:00pm 24.2 19.2 3.5 26 10.3 SW 19 28 10 15 1012.5 1011.3 0.0
17/01:30pm 24.1 19.6 4.0 27 10.1 S 17 30 9 16 1012.6 1011.4 0.0
17/01:00pm 22.1 18.2 3.3 29 9.2 SSW 13 24 7 13 1012.6 1011.4 0.0
17/12:30pm 21.9 18.0 3.6 30 9.0 S 13 28 7 15 1012.9 1011.7 0.0
17/12:00pm 22.3 18.1 3.9 30 9.1 SSW 15 28 8 15 1013.1 1011.9 0.0
17/11:30am 20.2 16.2 3.0 32 8.2 SW 13 28 7 15 1013.2 1012.0 0.0
17/11:00am 19.8 15.8 2.6 32 8.1 S 13 24 7 13 1013.2 1012.0 0.0
17/10:30am 19.1 15.2 3.3 35 7.5 S 13 24 7 13 1013.4 1012.2 0.0
17/10:00am 19.1 15.6 3.7 36 7.4 S 11 24 6 13 1013.5 1012.3 0.0
17/09:30am 18.2 14.7 3.7 38 6.9 SSW 11 22 6 12 1013.6 1012.4 0.0
17/09:00am 17.9 14.1 3.8 39 6.7 SW 13 22 7 12 1013.8 1012.7 0.0
17/08:30am 17.8 15.5 5.7 45 6.0 SSW 7 15 4 8 1013.7 1012.6 0.0
17/08:00am 16.1 12.8 4.5 46 5.5 SSW 11 17 6 9 1013.8 1012.7 0.0
17/07:30am 15.1 12.3 5.0 51 4.8 SSW 9 15 5 8 1013.7 1012.6 0.0
17/07:00am 14.7 11.7 5.8 55 4.3 S 11 17 6 9 1013.7 1012.6 0.0
17/06:30am 13.8 11.2 6.2 60 3.7 SSE 9 13 5 7 1013.5 1012.3 0.0
17/06:00am 13.2 11.2 6.3 63 3.3 S 6 9 3 5 1013.2 1012.0 0.0
17/05:30am 13.2 10.7 6.5 64 3.3 S 9 13 5 7 1013.1 1011.9 0.0
17/05:00am 13.0 11.1 6.6 65 3.1 S 6 9 3 5 1012.9 1011.7 0.0
17/04:30am 13.1 10.6 6.7 65 3.1 SSE 9 13 5 7 1012.6 1011.4 0.0
17/04:00am 13.0 10.5 6.6 65 3.1 SSE 9 13 5 7 1012.2 1011.1 0.0
17/03:30am 13.1 10.2 6.5 64 3.2 SSE 11 15 6 8 1012.1 1011.0 0.0
17/03:00am 13.2 10.6 6.3 63 3.3 SSE 9 15 5 8 1011.9 1010.8 0.0
17/02:30am 13.3 10.8 6.4 63 3.4 S 9 11 5 6 1012.0 1010.9 0.0
17/02:00am 13.3 10.8 6.4 63 3.4 S 9 15 5 8 1011.9 1010.8 0.0
17/01:30am 13.4 11.3 6.7 64 3.3 S 7 13 4 7 1012.0 1010.9 0.0
17/01:00am 13.4 11.5 7.4 67 3.0 SSE 7 13 4 7 1012.1 1011.0 0.0
17/12:30am 13.4 11.1 7.4 67 3.0 ESE 9 13 5 7 1012.1 1011.0 0.0
17/12:00am 13.3 10.6 7.3 67 3.0 SE 11 15 6 8 1012.5 1011.3 0.0
 
Date/Time
WST
Temp
°C
App
Temp
°C
Dew
Point
Rel
Hum
%
Delta-T
°C
Wind Press
QNH
hPa
Press
MSL
hPa
Rain
since 9 am
mm
Dir
 
Spd
km/h
Gust
km/h
Spd
kts
Gust
kts
16/11:30pm 13.3 10.2 7.3 67 3.0 SE 13 20 7 11 1012.6 1011.4 0.0
16/11:00pm 13.4 9.9 7.4 67 3.0 SSE 15 22 8 12 1013.0 1011.8 0.0
16/10:30pm 13.2 9.7 7.2 67 3.0 SSE 15 19 8 10 1013.0 1011.8 0.0
16/10:00pm 13.3 9.5 7.5 68 2.9 SE 17 22 9 12 1013.0 1011.8 0.0
16/09:30pm 13.8 9.9 7.3 65 3.2 SE 17 22 9 12 1012.8 1011.6 0.0
16/09:00pm 14.6 10.2 7.4 62 3.6 SE 20 32 11 17 1012.5 1011.3 0.0
16/08:30pm 15.7 10.1 7.2 57 4.3 SE 26 35 14 19 1012.1 1011.0 0.0
16/08:00pm 17.3 10.7 6.2 48 5.5 SE 30 41 16 22 1011.4 1010.3 0.0
16/07:47pm 18.5 14.1 5.0 41 6.6 SSW 17 39 9 21 1010.9 1009.7 0.0
16/07:30pm 21.2 17.9 -1.3 22 10.0 SW 6 7 3 4 1010.5 1009.3 0.0
16/07:00pm 21.6 18.1 -3.0 19 10.6 SW 6 6 3 3 1010.3 1009.1 0.0
16/06:30pm 24.4 22.0 -3.0 16 12.1 CALM 0 2 0 1 1010.2 1009.0 0.0
16/06:00pm 24.8 20.4 -2.7 16 12.2 W 11 15 6 8 1010.1 1008.9 0.0
16/05:30pm 25.1 21.5 -3.3 15 12.5 SW 6 13 3 7 1010.1 1008.9 0.0
16/05:00pm 25.3 21.6 -3.2 15 12.6 W 7 13 4 7 1010.0 1008.8 0.0
16/04:30pm 25.3 20.7 -4.1 14 12.8 W 11 20 6 11 1010.1 1008.9 0.0
16/04:00pm 24.9 20.9 -2.6 16 12.3 SW 9 17 5 9 1010.4 1009.2 0.0
16/03:30pm 24.1 20.6 -1.7 18 11.6 N 7 15 4 8 1010.9 1009.7 0.0
16/03:00pm 24.7 20.0 -2.0 17 12.0 WNW 13 26 7 14 1011.4 1010.3 0.0
16/02:30pm 23.4 20.1 -1.5 19 11.2 NNW 6 13 3 7 1011.6 1010.5 0.0
16/02:00pm 24.3 21.0 -1.5 18 11.7 WNW 6 13 3 7 1011.9 1010.8 0.0
16/01:30pm 23.2 19.9 0.3 22 10.6 SSE 7 15 4 8 1012.4 1011.2 0.0
16/01:00pm 22.5 19.3 0.9 24 10.1 N 7 13 4 7 1012.9 1011.7 0.0
16/12:30pm 21.8 17.8 0.4 24 9.8 NNW 11 17 6 9 1013.5 1012.3 0.0
16/12:00pm 21.4 17.4 0.6 25 9.6 WNW 11 28 6 15 1013.8 1012.7 0.0
16/11:30am 19.3 16.3 0.8 29 8.4 SSW 6 13 3 7 1014.2 1013.1 0.0
16/11:00am 18.8 16.0 1.8 32 7.8 ESE 6 17 3 9 1014.6 1013.5 0.0
16/10:30am 18.0 15.6 1.9 34 7.4 NNW 4 9 2 5 1014.9 1013.8 0.0
16/10:00am 17.5 14.5 2.3 36 7.0 ESE 7 19 4 10 1015.1 1014.0 0.0
16/09:30am 16.2 13.2 2.2 39 6.4 WNW 7 17 4 9 1015.3 1014.2 0.0
16/09:00am 16.8 13.6 3.1 40 6.4 SSE 9 19 5 10 1015.4 1014.3 0.0
16/08:30am 14.9 11.7 2.8 44 5.5 SSW 9 17 5 9 1015.7 1014.5 0.0
16/08:00am 14.5 11.7 3.0 46 5.2 SE 7 13 4 7 1015.8 1014.6 0.0

Other Formats:

Comma delimited format used in spreadsheet applications
http://www.bom.gov.au/fwo/IDW60801/IDW60801.94641.axf

JavaScript Object Notation format (JSON) in row-major order
http://www.bom.gov.au/fwo/IDW60801/IDW60801.94641.json